createdAt,value
2022-08-26T00:00:10.080Z,22.54
2022-08-26T00:01:10.088Z,22.52
2022-08-26T00:02:10.096Z,22.47
2022-08-26T00:03:10.044Z,22.46
2022-08-26T00:04:10.073Z,22.45
2022-08-26T00:05:10.020Z,22.40
2022-08-26T00:06:10.030Z,22.39
2022-08-26T00:07:09.991Z,22.36
2022-08-26T00:08:09.974Z,22.33
2022-08-26T00:09:09.971Z,22.31
2022-08-26T00:10:09.964Z,22.33
2022-08-26T00:11:09.952Z,22.43
2022-08-26T00:12:12.135Z,22.46
2022-08-26T00:13:09.924Z,22.47
2022-08-26T00:14:09.904Z,22.46
2022-08-26T00:15:09.914Z,22.45
2022-08-26T00:16:09.935Z,22.47
2022-08-26T00:17:09.893Z,22.54
2022-08-26T00:18:21.923Z,22.58
2022-08-26T00:19:10.874Z,22.60
2022-08-26T00:20:09.845Z,22.60
2022-08-26T00:21:09.854Z,22.60
2022-08-26T00:22:09.827Z,22.58
2022-08-26T00:23:09.808Z,22.62
2022-08-26T00:24:09.799Z,22.70
2022-08-26T00:25:09.796Z,22.75
2022-08-26T00:26:09.804Z,22.76
2022-08-26T00:27:09.775Z,22.79
2022-08-26T00:28:10.787Z,22.80
2022-08-26T00:29:09.752Z,22.82
2022-08-26T00:30:09.729Z,22.83
2022-08-26T00:31:10.956Z,22.86
2022-08-26T00:32:09.762Z,22.92
2022-08-26T00:33:09.888Z,22.94
2022-08-26T00:34:09.733Z,22.94
2022-08-26T00:35:09.688Z,22.94
2022-08-26T00:36:12.858Z,22.95
2022-08-26T00:37:13.415Z,22.97
2022-08-26T00:38:10.652Z,22.97
2022-08-26T00:39:09.630Z,22.94
2022-08-26T00:40:09.666Z,22.95
2022-08-26T00:41:09.620Z,22.94
2022-08-26T00:42:09.643Z,22.94
2022-08-26T00:43:09.681Z,22.95
2022-08-26T00:44:09.564Z,22.98
2022-08-26T00:45:11.583Z,22.98
2022-08-26T00:46:09.603Z,23.00
2022-08-26T00:47:09.523Z,22.98
2022-08-26T00:48:09.532Z,22.97
2022-08-26T00:49:12.164Z,22.95
2022-08-26T00:50:09.512Z,22.95
2022-08-26T00:51:09.513Z,22.94
2022-08-26T00:52:09.900Z,22.92
2022-08-26T00:53:09.466Z,22.91
2022-08-26T00:54:10.720Z,22.90
2022-08-26T00:55:09.455Z,22.86
2022-08-26T00:56:09.464Z,22.85
2022-08-26T00:57:16.296Z,22.83
2022-08-26T00:58:10.415Z,22.82
2022-08-26T00:59:09.411Z,22.80
2022-08-26T01:00:09.391Z,22.80
2022-08-26T01:01:09.462Z,22.80
2022-08-26T01:02:09.413Z,22.80
2022-08-26T01:03:12.697Z,22.79
2022-08-26T01:04:09.349Z,22.79
2022-08-26T01:05:09.341Z,22.75
2022-08-26T01:06:12.547Z,22.76
2022-08-26T01:07:09.318Z,22.73
2022-08-26T01:08:09.330Z,22.68
2022-08-26T01:09:09.306Z,22.67
2022-08-26T01:10:09.278Z,22.64
2022-08-26T01:11:09.339Z,22.62
2022-08-26T01:12:09.259Z,22.62
2022-08-26T01:13:09.391Z,22.61
2022-08-26T01:14:09.240Z,22.60
2022-08-26T01:15:09.230Z,22.58
2022-08-26T01:16:09.257Z,22.55
2022-08-26T01:17:09.198Z,22.54
2022-08-26T01:18:09.208Z,22.54
2022-08-26T01:19:09.191Z,22.49
2022-08-26T01:20:09.207Z,22.49
2022-08-26T01:21:09.162Z,22.47
2022-08-26T01:22:09.158Z,22.46
2022-08-26T01:23:09.291Z,22.45
2022-08-26T01:24:09.111Z,22.45
2022-08-26T01:25:09.118Z,22.43
2022-08-26T01:26:09.131Z,22.42
2022-08-26T01:27:10.084Z,22.40
2022-08-26T01:28:09.084Z,22.40
2022-08-26T01:29:09.055Z,22.37
2022-08-26T01:30:09.052Z,22.35
2022-08-26T01:31:09.105Z,22.35
2022-08-26T01:32:09.043Z,22.35
2022-08-26T01:33:09.223Z,22.35
2022-08-26T01:34:09.146Z,22.33
2022-08-26T01:35:09.004Z,22.33
2022-08-26T01:36:08.995Z,22.31
2022-08-26T01:37:08.987Z,22.30
2022-08-26T01:38:09.977Z,22.28
2022-08-26T01:39:08.956Z,22.28
2022-08-26T01:40:09.005Z,22.30
2022-08-26T01:41:16.035Z,22.28
2022-08-26T01:42:10.427Z,22.30
2022-08-26T01:43:09.421Z,22.27
2022-08-26T01:44:09.798Z,22.25
2022-08-26T01:45:08.898Z,22.27
2022-08-26T01:46:08.929Z,22.25
2022-08-26T01:47:08.866Z,22.24
2022-08-26T01:48:08.879Z,22.22
2022-08-26T01:49:08.838Z,22.21
2022-08-26T01:50:08.843Z,22.20
2022-08-26T01:51:08.851Z,22.18
2022-08-26T01:52:08.820Z,22.17
2022-08-26T01:53:09.119Z,22.17
2022-08-26T01:54:11.937Z,22.18
2022-08-26T01:55:09.780Z,22.17
2022-08-26T01:56:08.786Z,22.15
2022-08-26T01:57:08.751Z,22.12
2022-08-26T01:58:08.740Z,22.10
2022-08-26T01:59:09.362Z,22.07
2022-08-26T02:00:08.712Z,22.07
2022-08-26T02:01:09.684Z,22.06
2022-08-26T02:02:08.695Z,22.06
2022-08-26T02:03:08.767Z,22.03
2022-08-26T02:04:08.712Z,22.00
2022-08-26T02:05:08.652Z,21.98
2022-08-26T02:06:09.431Z,21.96
2022-08-26T02:07:08.637Z,21.96
2022-08-26T02:08:08.634Z,21.96
2022-08-26T02:09:08.606Z,21.92
2022-08-26T02:10:08.595Z,21.91
2022-08-26T02:11:08.605Z,21.90
2022-08-26T02:12:08.597Z,21.88
2022-08-26T02:13:08.663Z,21.86
2022-08-26T02:14:08.556Z,21.83
2022-08-26T02:15:08.577Z,21.80
2022-08-26T02:16:08.636Z,21.80
2022-08-26T02:17:08.524Z,21.77
2022-08-26T02:18:08.519Z,21.77
2022-08-26T02:19:09.505Z,21.77
2022-08-26T02:20:13.439Z,21.77
2022-08-26T02:21:09.500Z,21.75
2022-08-26T02:22:08.458Z,21.72
2022-08-26T02:23:08.681Z,21.69
2022-08-26T02:24:08.436Z,21.71
2022-08-26T02:25:08.489Z,21.71
2022-08-26T02:26:08.434Z,21.67
2022-08-26T02:27:08.388Z,21.65
2022-08-26T02:28:08.400Z,21.62
2022-08-26T02:29:08.377Z,21.61
2022-08-26T02:30:08.360Z,21.62
2022-08-26T02:31:08.412Z,21.58
2022-08-26T02:32:08.350Z,21.54
2022-08-26T02:33:08.540Z,21.54
2022-08-26T02:34:08.322Z,21.52
2022-08-26T02:35:08.320Z,21.50
2022-08-26T02:36:08.305Z,21.49
2022-08-26T02:37:08.282Z,21.47
2022-08-26T02:38:10.278Z,21.46
2022-08-26T02:39:08.261Z,21.44
2022-08-26T02:40:08.279Z,21.44
2022-08-26T02:41:08.272Z,21.43
2022-08-26T02:42:08.259Z,21.42
2022-08-26T02:43:08.552Z,21.40
2022-08-26T02:44:08.195Z,21.42
2022-08-26T02:45:08.211Z,21.40
2022-08-26T02:46:08.201Z,21.43
2022-08-26T02:47:08.228Z,21.40
2022-08-26T02:48:08.158Z,21.37
2022-08-26T02:49:08.164Z,21.34
2022-08-26T02:50:08.169Z,21.32
2022-08-26T02:51:08.146Z,21.34
2022-08-26T02:52:08.141Z,21.34
2022-08-26T02:53:08.208Z,21.31
2022-08-26T02:54:08.088Z,21.29
2022-08-26T02:55:08.088Z,21.31
2022-08-26T02:56:08.088Z,21.29
2022-08-26T02:57:08.058Z,21.27
2022-08-26T02:58:08.058Z,21.25
2022-08-26T02:59:08.038Z,21.22
2022-08-26T03:00:08.010Z,21.22
2022-08-26T03:01:08.056Z,21.19
2022-08-26T03:02:08.045Z,21.17
2022-08-26T03:03:08.159Z,21.16
2022-08-26T03:04:08.009Z,21.16
2022-08-26T03:05:07.959Z,21.14
2022-08-26T03:06:07.974Z,21.16
2022-08-26T03:07:07.920Z,21.14
2022-08-26T03:08:07.940Z,21.13
2022-08-26T03:09:07.908Z,21.12
2022-08-26T03:10:08.490Z,21.12
2022-08-26T03:11:07.921Z,21.10
2022-08-26T03:12:07.881Z,21.09
2022-08-26T03:13:08.023Z,21.07
2022-08-26T03:14:07.879Z,21.06
2022-08-26T03:15:17.650Z,21.04
2022-08-26T03:16:08.913Z,21.04
2022-08-26T03:17:07.803Z,21.04
2022-08-26T03:18:07.847Z,21.07
2022-08-26T03:19:07.790Z,21.07
2022-08-26T03:20:07.782Z,21.06
2022-08-26T03:21:07.832Z,21.07
2022-08-26T03:22:07.764Z,21.06
2022-08-26T03:23:07.887Z,21.04
2022-08-26T03:24:07.762Z,21.07
2022-08-26T03:25:07.715Z,21.06
2022-08-26T03:26:07.728Z,21.06
2022-08-26T03:27:07.694Z,21.07
2022-08-26T03:28:07.837Z,21.06
2022-08-26T03:29:07.676Z,21.07
2022-08-26T03:30:07.676Z,21.09
2022-08-26T03:31:07.793Z,21.07
2022-08-26T03:32:07.636Z,21.10
2022-08-26T03:33:07.702Z,21.12
2022-08-26T03:34:07.620Z,21.10
2022-08-26T03:35:07.617Z,21.12
2022-08-26T03:36:07.599Z,21.10
2022-08-26T03:37:07.577Z,21.12
2022-08-26T03:38:07.586Z,21.13
2022-08-26T03:39:07.566Z,21.13
2022-08-26T03:40:07.574Z,21.13
2022-08-26T03:41:07.557Z,21.13
2022-08-26T03:42:07.537Z,21.13
2022-08-26T03:43:09.869Z,21.14
2022-08-26T03:44:07.506Z,21.13
2022-08-26T03:45:07.491Z,21.12
2022-08-26T03:46:07.527Z,21.10
2022-08-26T03:47:07.459Z,21.12
2022-08-26T03:48:07.459Z,21.13
2022-08-26T03:49:07.438Z,21.12
2022-08-26T03:50:07.429Z,21.14
2022-08-26T03:51:07.438Z,21.13
2022-08-26T03:52:07.413Z,21.13
2022-08-26T03:53:12.792Z,21.12
2022-08-26T03:54:08.500Z,21.13
2022-08-26T03:55:07.373Z,21.14
2022-08-26T03:56:07.373Z,21.17
2022-08-26T03:57:07.355Z,21.19
2022-08-26T03:58:07.344Z,21.19
2022-08-26T03:59:07.682Z,21.19
2022-08-26T04:00:07.308Z,21.21
2022-08-26T04:01:07.324Z,21.22
2022-08-26T04:02:11.314Z,21.19
2022-08-26T04:03:07.594Z,21.21
2022-08-26T04:04:07.294Z,21.22
2022-08-26T04:05:07.254Z,21.22
2022-08-26T04:06:07.247Z,21.21
2022-08-26T04:07:07.235Z,21.22
2022-08-26T04:08:07.250Z,21.22
2022-08-26T04:09:07.204Z,21.24
2022-08-26T04:10:07.193Z,21.25
2022-08-26T04:11:07.215Z,21.28
2022-08-26T04:12:07.175Z,21.28
2022-08-26T04:13:07.420Z,21.28
2022-08-26T04:14:07.156Z,21.28
2022-08-26T04:15:07.136Z,21.28
2022-08-26T04:16:07.226Z,21.28
2022-08-26T04:17:07.117Z,21.27
2022-08-26T04:18:07.110Z,21.27
2022-08-26T04:19:07.347Z,21.28
2022-08-26T04:20:07.089Z,21.27
2022-08-26T04:21:07.994Z,21.28
2022-08-26T04:22:07.061Z,21.27
2022-08-26T04:23:07.243Z,21.27
2022-08-26T04:24:11.362Z,21.24
2022-08-26T04:25:08.048Z,21.27
2022-08-26T04:26:07.021Z,21.27
2022-08-26T04:27:06.998Z,21.27
2022-08-26T04:28:06.999Z,21.28
2022-08-26T04:29:06.959Z,21.27
2022-08-26T04:30:06.965Z,21.27
2022-08-26T04:31:06.996Z,21.29
2022-08-26T04:32:06.951Z,21.31
2022-08-26T04:33:12.933Z,21.29
2022-08-26T04:34:07.920Z,21.28
2022-08-26T04:35:06.911Z,21.28
2022-08-26T04:36:06.901Z,21.28
2022-08-26T04:37:06.894Z,21.29
2022-08-26T04:38:06.899Z,21.28
2022-08-26T04:39:06.855Z,21.28
2022-08-26T04:40:06.871Z,21.27
2022-08-26T04:41:06.866Z,21.27
2022-08-26T04:42:07.813Z,21.28
2022-08-26T04:43:07.084Z,21.28
2022-08-26T04:44:06.818Z,21.28
2022-08-26T04:45:10.217Z,21.29
2022-08-26T04:46:06.841Z,21.32
2022-08-26T04:47:06.767Z,21.32
2022-08-26T04:48:06.755Z,21.34
2022-08-26T04:49:06.744Z,21.32
2022-08-26T04:50:06.716Z,21.34
2022-08-26T04:51:06.754Z,21.32
2022-08-26T04:52:06.695Z,21.31
2022-08-26T04:53:07.176Z,21.28
2022-08-26T04:54:06.687Z,21.25
2022-08-26T04:55:08.551Z,21.25
2022-08-26T04:56:06.671Z,21.25
2022-08-26T04:57:06.654Z,21.28
2022-08-26T04:58:06.636Z,21.28
2022-08-26T04:59:07.245Z,21.29
2022-08-26T05:00:06.615Z,21.28
2022-08-26T05:01:06.626Z,21.29
2022-08-26T05:02:06.623Z,21.29
2022-08-26T05:03:06.697Z,21.29
2022-08-26T05:04:08.071Z,21.31
2022-08-26T05:05:06.564Z,21.31
2022-08-26T05:06:06.540Z,21.31
2022-08-26T05:07:06.543Z,21.32
2022-08-26T05:08:06.528Z,21.32
2022-08-26T05:09:06.554Z,21.34
2022-08-26T05:10:08.909Z,21.35
2022-08-26T05:11:06.500Z,21.35
2022-08-26T05:12:06.481Z,21.37
2022-08-26T05:13:10.966Z,21.38
2022-08-26T05:14:07.444Z,21.40
2022-08-26T05:15:06.440Z,21.40
2022-08-26T05:16:06.493Z,21.38
2022-08-26T05:17:06.422Z,21.38
2022-08-26T05:18:06.406Z,21.38
2022-08-26T05:19:06.402Z,21.38
2022-08-26T05:20:06.377Z,21.40
2022-08-26T05:21:06.412Z,21.40
2022-08-26T05:22:06.350Z,21.37
2022-08-26T05:23:06.364Z,21.35
2022-08-26T05:24:06.335Z,21.37
2022-08-26T05:25:06.324Z,21.35
2022-08-26T05:26:06.318Z,21.38
2022-08-26T05:27:11.531Z,21.40
2022-08-26T05:28:07.317Z,21.40
2022-08-26T05:29:06.294Z,21.42
2022-08-26T05:30:06.256Z,21.42
2022-08-26T05:31:06.318Z,21.42
2022-08-26T05:32:06.247Z,21.40
2022-08-26T05:33:06.226Z,21.40
2022-08-26T05:34:07.004Z,21.40
2022-08-26T05:35:08.877Z,21.38
2022-08-26T05:36:06.208Z,21.40
2022-08-26T05:37:06.187Z,21.43
2022-08-26T05:38:09.284Z,21.47
2022-08-26T05:39:07.148Z,21.47
2022-08-26T05:40:06.210Z,21.52
2022-08-26T05:41:06.160Z,21.52
2022-08-26T05:42:06.118Z,21.50
2022-08-26T05:43:06.119Z,21.52
2022-08-26T05:44:06.132Z,21.54
2022-08-26T05:45:06.083Z,21.56
2022-08-26T05:46:06.177Z,21.61
2022-08-26T05:47:06.062Z,21.62
2022-08-26T05:48:06.114Z,21.64
2022-08-26T05:49:06.030Z,21.62
2022-08-26T05:50:07.041Z,21.61
2022-08-26T05:51:06.023Z,21.62
2022-08-26T05:52:06.011Z,21.65
2022-08-26T05:53:06.007Z,21.64
2022-08-26T05:54:06.003Z,21.67
2022-08-26T05:55:05.982Z,21.67
2022-08-26T05:56:05.974Z,21.69
2022-08-26T05:57:06.064Z,21.71
2022-08-26T05:58:05.962Z,21.72
2022-08-26T05:59:05.915Z,21.74
2022-08-26T06:00:06.925Z,21.79
2022-08-26T06:01:05.915Z,21.79
2022-08-26T06:02:05.971Z,21.82
2022-08-26T06:03:05.984Z,21.80
2022-08-26T06:04:05.864Z,21.77
2022-08-26T06:05:05.860Z,21.77
2022-08-26T06:06:05.866Z,21.79
2022-08-26T06:07:05.838Z,21.79
2022-08-26T06:08:05.820Z,21.80
2022-08-26T06:09:05.815Z,21.82
2022-08-26T06:10:30.936Z,21.86
2022-08-26T06:11:06.828Z,21.88
2022-08-26T06:12:05.766Z,21.88
2022-08-26T06:13:11.820Z,21.88
2022-08-26T06:14:06.924Z,21.86
2022-08-26T06:15:05.747Z,21.84
2022-08-26T06:16:05.790Z,21.86
2022-08-26T06:17:05.718Z,21.88
2022-08-26T06:18:05.760Z,21.84
2022-08-26T06:19:10.992Z,21.88
2022-08-26T06:20:06.697Z,21.88
2022-08-26T06:21:05.697Z,21.91
2022-08-26T06:22:05.650Z,21.92
2022-08-26T06:23:05.692Z,21.88
2022-08-26T06:24:05.631Z,21.86
2022-08-26T06:25:05.632Z,21.84
2022-08-26T06:26:05.612Z,21.88
2022-08-26T06:27:05.595Z,21.83
2022-08-26T06:28:05.581Z,21.82
2022-08-26T06:29:05.610Z,21.80
2022-08-26T06:30:05.551Z,21.79
2022-08-26T06:31:05.655Z,21.80
2022-08-26T06:32:05.544Z,21.86
2022-08-26T06:33:05.530Z,21.90
2022-08-26T06:34:10.376Z,21.91
2022-08-26T06:35:06.503Z,21.91
2022-08-26T06:36:06.511Z,21.92
2022-08-26T06:37:05.484Z,21.94
2022-08-26T06:38:05.476Z,21.98
2022-08-26T06:39:05.454Z,22.03
2022-08-26T06:40:05.492Z,22.06
2022-08-26T06:41:05.462Z,22.06
2022-08-26T06:42:06.314Z,22.09
2022-08-26T06:43:05.446Z,22.09
2022-08-26T06:44:05.415Z,22.09
2022-08-26T06:45:05.383Z,22.09
2022-08-26T06:46:05.449Z,22.07
2022-08-26T06:47:05.375Z,22.06
2022-08-26T06:48:05.354Z,22.05
2022-08-26T06:49:05.347Z,22.07
2022-08-26T06:50:05.340Z,22.12
2022-08-26T06:51:05.330Z,22.14
2022-08-26T06:52:05.318Z,22.15
2022-08-26T06:53:05.347Z,22.12
2022-08-26T06:54:05.289Z,22.07
2022-08-26T06:55:05.350Z,22.05
2022-08-26T06:56:05.298Z,22.06
2022-08-26T06:57:05.247Z,22.12
2022-08-26T06:58:05.304Z,22.18
2022-08-26T06:59:05.219Z,22.22
2022-08-26T07:00:05.211Z,22.21
2022-08-26T07:01:11.350Z,22.22
2022-08-26T07:02:06.296Z,22.21
2022-08-26T07:03:05.247Z,22.20
2022-08-26T07:04:05.173Z,22.25
2022-08-26T07:05:06.161Z,22.24
2022-08-26T07:06:05.160Z,22.20
2022-08-26T07:07:05.142Z,22.18
2022-08-26T07:08:05.161Z,22.15
2022-08-26T07:09:05.122Z,22.12
2022-08-26T07:10:05.108Z,22.10
2022-08-26T07:11:05.128Z,22.09
2022-08-26T07:12:05.082Z,22.10
2022-08-26T07:13:06.018Z,22.14
2022-08-26T07:14:05.065Z,22.14
2022-08-26T07:15:05.046Z,22.17
2022-08-26T07:16:05.136Z,22.20
2022-08-26T07:17:05.015Z,22.18
2022-08-26T07:18:05.018Z,22.22
2022-08-26T07:19:10.835Z,22.25
2022-08-26T07:20:06.004Z,22.27
2022-08-26T07:21:05.012Z,22.27
2022-08-26T07:22:04.960Z,22.27
2022-08-26T07:23:05.004Z,22.24
2022-08-26T07:24:05.949Z,22.22
2022-08-26T07:25:04.937Z,22.24
2022-08-26T07:26:04.938Z,22.25
2022-08-26T07:27:05.553Z,22.25
2022-08-26T07:28:04.902Z,22.22
2022-08-26T07:29:04.888Z,22.21
2022-08-26T07:30:04.869Z,22.21
2022-08-26T07:31:04.972Z,22.20
2022-08-26T07:32:04.860Z,22.24
2022-08-26T07:33:04.902Z,22.28
2022-08-26T07:34:04.869Z,22.33
2022-08-26T07:35:04.809Z,22.36
2022-08-26T07:36:04.837Z,22.36
2022-08-26T07:37:04.809Z,22.37
2022-08-26T07:38:04.823Z,22.39
2022-08-26T07:39:04.763Z,22.43
2022-08-26T07:40:04.821Z,22.47
2022-08-26T07:41:04.767Z,22.51
2022-08-26T07:42:08.008Z,22.57
2022-08-26T07:43:04.846Z,22.61
2022-08-26T07:44:04.722Z,22.60
2022-08-26T07:45:04.704Z,22.49
2022-08-26T07:46:04.721Z,22.49
2022-08-26T07:47:10.104Z,22.51
2022-08-26T07:48:05.686Z,22.52
2022-08-26T07:49:04.677Z,22.54
2022-08-26T07:50:04.673Z,22.55
2022-08-26T07:51:04.666Z,22.54
2022-08-26T07:52:04.644Z,22.52
2022-08-26T07:53:04.672Z,22.57
2022-08-26T07:54:04.616Z,22.62
2022-08-26T07:55:04.604Z,22.62
2022-08-26T07:56:04.577Z,22.60
2022-08-26T07:57:05.206Z,22.57
2022-08-26T07:58:04.556Z,22.47
2022-08-26T07:59:04.558Z,22.49
2022-08-26T08:00:05.562Z,22.49
2022-08-26T08:01:04.589Z,22.51
2022-08-26T08:02:04.518Z,22.49
2022-08-26T08:03:04.516Z,22.52
2022-08-26T08:04:04.495Z,22.52
2022-08-26T08:05:04.533Z,22.46
2022-08-26T08:06:04.480Z,22.43
2022-08-26T08:07:04.457Z,22.43
2022-08-26T08:08:17.329Z,22.45
2022-08-26T08:09:05.459Z,22.46
2022-08-26T08:10:09.644Z,22.45
2022-08-26T08:11:05.450Z,22.42
2022-08-26T08:12:04.409Z,22.35
2022-08-26T08:13:04.395Z,22.30
2022-08-26T08:14:04.388Z,22.28
2022-08-26T08:15:04.380Z,22.31
2022-08-26T08:16:04.379Z,22.35
2022-08-26T08:17:04.481Z,22.37
2022-08-26T08:18:04.403Z,22.40
2022-08-26T08:19:04.323Z,22.42
2022-08-26T08:20:04.319Z,22.43
2022-08-26T08:21:21.162Z,22.45
2022-08-26T08:22:05.304Z,22.49
2022-08-26T08:23:05.284Z,22.52
2022-08-26T08:24:04.272Z,22.55
2022-08-26T08:25:06.235Z,22.61
2022-08-26T08:26:04.254Z,22.64
2022-08-26T08:27:04.233Z,22.65
2022-08-26T08:28:04.208Z,22.67
2022-08-26T08:29:04.213Z,22.72
2022-08-26T08:30:04.184Z,22.70
2022-08-26T08:31:04.239Z,22.64
2022-08-26T08:32:04.251Z,22.62
2022-08-26T08:33:04.168Z,22.61
2022-08-26T08:34:04.164Z,22.57
2022-08-26T08:35:10.792Z,22.55
2022-08-26T08:36:05.203Z,22.54
2022-08-26T08:37:06.151Z,22.52
2022-08-26T08:38:04.258Z,22.47
2022-08-26T08:39:04.116Z,22.46
2022-08-26T08:40:04.129Z,22.51
2022-08-26T08:41:05.641Z,22.47
2022-08-26T08:42:04.065Z,22.42
2022-08-26T08:43:04.181Z,22.37
2022-08-26T08:44:04.040Z,22.33
2022-08-26T08:45:04.054Z,22.35
2022-08-26T08:46:04.360Z,22.39
2022-08-26T08:47:04.021Z,22.42
2022-08-26T08:48:04.004Z,22.45
2022-08-26T08:49:03.993Z,22.43
2022-08-26T08:50:03.997Z,22.43
2022-08-26T08:51:03.981Z,22.46
2022-08-26T08:52:04.217Z,22.52
2022-08-26T08:53:03.950Z,22.58
2022-08-26T08:54:03.920Z,22.64
2022-08-26T08:55:03.929Z,22.68
2022-08-26T08:56:03.926Z,22.68
2022-08-26T08:57:03.896Z,22.75
2022-08-26T08:58:03.882Z,22.79
2022-08-26T08:59:03.874Z,22.75
2022-08-26T09:00:03.855Z,22.68
2022-08-26T09:01:03.929Z,22.70
2022-08-26T09:02:03.868Z,22.75
2022-08-26T09:03:03.826Z,22.79
2022-08-26T09:04:03.833Z,22.85
2022-08-26T09:05:03.803Z,22.85
2022-08-26T09:06:03.904Z,22.90
2022-08-26T09:07:03.786Z,22.97
2022-08-26T09:08:03.791Z,22.95
2022-08-26T09:09:03.760Z,22.90
2022-08-26T09:10:03.778Z,22.88
2022-08-26T09:11:03.741Z,22.85
2022-08-26T09:12:03.723Z,22.85
2022-08-26T09:13:03.730Z,22.90
2022-08-26T09:14:03.707Z,22.94
2022-08-26T09:15:03.681Z,23.00
2022-08-26T09:16:03.756Z,23.02
2022-08-26T09:17:03.694Z,23.04
2022-08-26T09:18:05.600Z,23.02
2022-08-26T09:19:03.647Z,22.94
2022-08-26T09:20:03.641Z,22.83
2022-08-26T09:21:03.611Z,22.80
2022-08-26T09:22:08.754Z,22.79
2022-08-26T09:23:04.588Z,22.76
2022-08-26T09:24:03.584Z,22.75
2022-08-26T09:25:03.600Z,22.73
2022-08-26T09:26:03.561Z,22.73
2022-08-26T09:27:03.548Z,22.70
2022-08-26T09:28:03.542Z,22.75
2022-08-26T09:29:03.530Z,22.83
2022-08-26T09:30:03.584Z,22.91
2022-08-26T09:31:05.709Z,22.98
2022-08-26T09:32:03.496Z,23.07
2022-08-26T09:33:03.518Z,23.09
2022-08-26T09:34:04.485Z,23.12
2022-08-26T09:35:03.493Z,23.13
2022-08-26T09:36:03.464Z,23.16
2022-08-26T09:37:04.632Z,23.22
2022-08-26T09:38:03.513Z,23.23
2022-08-26T09:39:03.424Z,23.28
2022-08-26T09:40:03.454Z,23.31
2022-08-26T09:41:03.391Z,23.32
2022-08-26T09:42:03.415Z,23.28
2022-08-26T09:43:03.391Z,23.28
2022-08-26T09:44:03.360Z,23.19
2022-08-26T09:45:03.395Z,23.13
2022-08-26T09:46:03.380Z,23.05
2022-08-26T09:47:03.336Z,22.97
2022-08-26T09:48:03.361Z,22.94
2022-08-26T09:49:03.306Z,22.95
2022-08-26T09:50:03.316Z,22.95
2022-08-26T09:51:03.319Z,22.92
2022-08-26T09:52:03.267Z,22.86
2022-08-26T09:53:03.363Z,22.90
2022-08-26T09:54:05.568Z,22.86
2022-08-26T09:55:03.448Z,22.83
2022-08-26T09:56:03.235Z,22.82
2022-08-26T09:57:03.231Z,22.83
2022-08-26T09:58:08.657Z,22.82
2022-08-26T09:59:04.611Z,22.90
2022-08-26T10:00:03.212Z,22.90
2022-08-26T10:01:03.267Z,22.88
2022-08-26T10:02:03.161Z,22.83
2022-08-26T10:03:04.251Z,22.79
2022-08-26T10:04:03.174Z,22.77
2022-08-26T10:05:09.776Z,22.80
2022-08-26T10:06:04.112Z,22.83
2022-08-26T10:07:03.114Z,22.88
2022-08-26T10:08:03.237Z,22.94
2022-08-26T10:09:08.317Z,23.00
2022-08-26T10:10:04.246Z,23.02
2022-08-26T10:11:03.115Z,22.98
2022-08-26T10:12:03.067Z,23.00
2022-08-26T10:13:03.071Z,22.94
2022-08-26T10:14:03.026Z,22.85
2022-08-26T10:15:03.083Z,22.77
2022-08-26T10:16:02.995Z,22.77
2022-08-26T10:17:03.104Z,22.76
2022-08-26T10:18:02.987Z,22.77
2022-08-26T10:19:02.975Z,22.73
2022-08-26T10:20:02.952Z,22.68
2022-08-26T10:21:02.963Z,22.70
2022-08-26T10:22:02.937Z,22.75
2022-08-26T10:23:02.990Z,22.79
2022-08-26T10:24:02.927Z,22.79
2022-08-26T10:25:02.974Z,22.79
2022-08-26T10:26:02.887Z,22.72
2022-08-26T10:27:02.866Z,22.75
2022-08-26T10:28:02.867Z,22.75
2022-08-26T10:29:02.846Z,22.79
2022-08-26T10:30:02.847Z,22.79
2022-08-26T10:31:02.820Z,22.83
2022-08-26T10:32:03.693Z,22.82
2022-08-26T10:33:02.849Z,22.88
2022-08-26T10:34:02.822Z,22.88
2022-08-26T10:35:02.841Z,22.90
2022-08-26T10:36:02.769Z,22.90
2022-08-26T10:37:14.422Z,22.90
2022-08-26T10:38:03.742Z,22.86
2022-08-26T10:39:02.739Z,22.88
2022-08-26T10:40:02.869Z,22.83
2022-08-26T10:41:02.717Z,22.88
2022-08-26T10:42:03.727Z,22.94
2022-08-26T10:43:07.199Z,23.01
2022-08-26T10:44:03.681Z,23.05
2022-08-26T10:45:02.695Z,23.12
2022-08-26T10:46:02.679Z,23.12
2022-08-26T10:47:02.678Z,23.05
2022-08-26T10:48:02.682Z,23.01
2022-08-26T10:49:03.345Z,22.92
2022-08-26T10:50:03.420Z,22.85
2022-08-26T10:51:02.598Z,22.79
2022-08-26T10:52:02.596Z,22.80
2022-08-26T10:53:02.574Z,22.80
2022-08-26T10:54:03.273Z,22.80
2022-08-26T10:55:03.113Z,22.82
2022-08-26T10:56:02.564Z,22.77
2022-08-26T10:57:02.538Z,22.75
2022-08-26T10:58:06.594Z,22.75
2022-08-26T10:59:03.526Z,22.77
2022-08-26T11:00:02.495Z,22.82
2022-08-26T11:01:02.581Z,22.85
2022-08-26T11:02:03.966Z,22.91
2022-08-26T11:03:02.524Z,22.97
2022-08-26T11:04:02.530Z,23.04
2022-08-26T11:05:02.494Z,23.05
2022-08-26T11:06:02.438Z,23.07
2022-08-26T11:07:02.420Z,23.10
2022-08-26T11:08:02.467Z,23.09
2022-08-26T11:09:02.388Z,23.07
2022-08-26T11:10:02.395Z,23.01
2022-08-26T11:11:02.373Z,23.02
2022-08-26T11:12:06.784Z,23.01
2022-08-26T11:13:03.351Z,23.02
2022-08-26T11:14:02.353Z,23.00
2022-08-26T11:15:02.362Z,22.97
2022-08-26T11:16:02.388Z,22.98
2022-08-26T11:17:02.345Z,23.01
2022-08-26T11:18:02.361Z,23.05
2022-08-26T11:19:02.303Z,23.10
2022-08-26T11:20:07.469Z,23.12
2022-08-26T11:21:03.255Z,23.01
2022-08-26T11:22:03.385Z,22.97
2022-08-26T11:23:02.232Z,22.90
2022-08-26T11:24:02.238Z,22.91
2022-08-26T11:25:02.310Z,22.91
2022-08-26T11:26:02.207Z,22.94
2022-08-26T11:27:02.196Z,22.95
2022-08-26T11:28:02.184Z,22.94
2022-08-26T11:29:03.039Z,23.00
2022-08-26T11:30:02.248Z,23.09
2022-08-26T11:31:02.144Z,23.16
2022-08-26T11:32:02.624Z,23.16
2022-08-26T11:33:02.212Z,23.22
2022-08-26T11:34:02.628Z,23.28
2022-08-26T11:35:02.114Z,23.28
2022-08-26T11:36:11.546Z,23.27
2022-08-26T11:37:03.115Z,23.32
2022-08-26T11:38:02.114Z,23.39
2022-08-26T11:39:02.783Z,23.42
2022-08-26T11:40:02.854Z,23.42
2022-08-26T11:41:03.285Z,23.43
2022-08-26T11:42:02.048Z,23.48
2022-08-26T11:43:02.018Z,23.48
2022-08-26T11:44:02.041Z,23.40
2022-08-26T11:45:05.576Z,23.38
2022-08-26T11:46:02.073Z,23.36
2022-08-26T11:47:01.972Z,23.31
2022-08-26T11:48:01.998Z,23.35
2022-08-26T11:49:01.938Z,23.33
2022-08-26T11:50:01.953Z,23.36
2022-08-26T11:51:01.920Z,23.46
2022-08-26T11:52:01.912Z,23.47
2022-08-26T11:53:02.341Z,23.43
2022-08-26T11:54:01.895Z,23.42
2022-08-26T11:55:01.912Z,23.40
2022-08-26T11:56:01.863Z,23.48
2022-08-26T11:57:04.847Z,23.50
2022-08-26T11:58:04.730Z,23.54
2022-08-26T11:59:01.813Z,23.55
2022-08-26T12:00:01.853Z,23.55
2022-08-26T12:01:01.847Z,23.54
2022-08-26T12:02:01.879Z,23.55
2022-08-26T12:03:01.828Z,23.58
2022-08-26T12:04:01.913Z,23.65
2022-08-26T12:05:01.775Z,23.68
2022-08-26T12:06:01.755Z,23.68
2022-08-26T12:07:01.796Z,23.63
2022-08-26T12:08:01.726Z,23.60
2022-08-26T12:09:01.752Z,23.58
2022-08-26T12:10:02.230Z,23.55
2022-08-26T12:11:01.729Z,23.58
2022-08-26T12:12:01.674Z,23.66
2022-08-26T12:13:01.669Z,23.70
2022-08-26T12:14:01.653Z,23.73
2022-08-26T12:15:01.657Z,23.63
2022-08-26T12:16:01.636Z,23.68
2022-08-26T12:17:01.630Z,23.69
2022-08-26T12:18:01.614Z,23.73
2022-08-26T12:19:01.596Z,23.70
2022-08-26T12:20:01.621Z,23.80
2022-08-26T12:21:01.571Z,23.90
2022-08-26T12:22:01.573Z,23.90
2022-08-26T12:23:01.554Z,23.91
2022-08-26T12:24:01.534Z,24.00
2022-08-26T12:25:01.552Z,24.10
2022-08-26T12:26:01.517Z,24.10
2022-08-26T12:27:01.532Z,24.10
2022-08-26T12:28:01.531Z,24.08
2022-08-26T12:29:01.492Z,24.03
2022-08-26T12:30:02.507Z,24.02
2022-08-26T12:31:01.454Z,23.98
2022-08-26T12:32:01.507Z,24.00
2022-08-26T12:33:01.449Z,24.03
2022-08-26T12:34:01.420Z,24.05
2022-08-26T12:35:01.488Z,24.03
2022-08-26T12:36:01.405Z,23.98
2022-08-26T12:37:01.420Z,24.03
2022-08-26T12:38:02.237Z,24.00
2022-08-26T12:39:01.365Z,24.08
2022-08-26T12:40:01.403Z,24.10
2022-08-26T12:41:01.357Z,24.12
2022-08-26T12:42:02.074Z,24.18
2022-08-26T12:43:01.415Z,24.25
2022-08-26T12:44:01.351Z,24.25
2022-08-26T12:45:01.312Z,24.31
2022-08-26T12:46:01.532Z,24.39
2022-08-26T12:47:01.287Z,24.50
2022-08-26T12:48:01.287Z,24.60
2022-08-26T12:49:01.256Z,24.67
2022-08-26T12:50:01.312Z,24.61
2022-08-26T12:51:01.251Z,24.53
2022-08-26T12:52:01.302Z,24.39